• Join FlightAware (Why Join?)
  • Login
  • US Flag 
01:06AM EDT


 

Airport Tracker/Info


-or-


 

Live Flight TrackerFlight Track Log ✈ DAL1116 ✈ 21-Apr-2013 ✈ KLAS - KDTW

Flight Track Log - Related Links

Times and Time Zones

All times are in EDT time to prevent confusion due to time zone crossing. See the DAL1116 flight status page for this flight to view local times or setup timezone preferences in your user account.

Time Position Orientation Groundspeed Altitude Reporting Facility
EDT Latitude Longitude Course Direction KTS MPH feet Rate Location/Type
07:15PM 36.0753 -115.1844 90° East 180 207 3,200  Level Los Angeles Center
07:16PM 36.0783 -115.2686 273° West 248 285 5,600 2,040 Climbing Los Angeles Center
07:17PM 36.0914 -115.2847 315° West 223 257 6,400 2,640 Climbing Los Angeles Center
07:18PM 36.1834 -115.0443 90° East  Level FlightAware Approximate
07:18PM 36.1681 -115.2664 11° North 252 290 9,500  Level Los Angeles Center
07:19PM 36.1838 -114.8802 80° East  Level FlightAware Approximate
07:19PM 36.1967 -115.1728 69° East 287 330 11,000  Level Los Angeles Center
07:20PM 36.1960 -114.7181 96° East  Level FlightAware Approximate
07:20PM 36.1978 -115.0489 89° East 350 403 13,000  Level Los Angeles Center
07:21PM 36.1833 -114.5547 90° East  Level FlightAware Approximate
07:21PM 36.1986 -114.9147 90° East 380 437 14,500  Level Los Angeles Center
07:22PM 36.1994 -114.7675 90° East 416 479 16,600 1,980 Climbing Los Angeles Center
07:23PM 36.1989 -114.6142 90° East 438 504 18,700 2,100 Climbing Los Angeles Center
07:24PM 36.1956 -114.4247 91° East 456 525 21,000 1,920 Climbing Los Angeles Center
07:25PM 36.1953 -114.2611 90° East 468 539 22,700 1,500 Climbing Los Angeles Center
07:26PM 36.2347 -114.1050 73° East 477 549 24,200 1,380 Climbing Los Angeles Center
07:27PM 36.2817 -113.9475 70° East 486 559 25,600 1,260 Climbing Los Angeles Center
07:28PM 36.3297 -113.7872 70° East 494 568 26,900 1,380 Climbing Los Angeles Center
07:29PM 36.3778 -113.6264 70° East 498 573 28,500 1,560 Climbing Los Angeles Center
07:30PM 36.4339 -113.4342 70° East 495 570 30,200 1,200 Climbing Los Angeles Center
07:31PM 36.4819 -113.2744 69° East 495 570 31,000 360 Climbing Los Angeles Center
07:32PM 36.5264 -113.1178 71° East 495 570 31,000  Level Los Angeles Center
07:33PM 36.5731 -112.9589 70° East 492 566 31,000  Level Los Angeles Center
07:34PM 36.6175 -112.7994 71° East 492 566 31,000  Level Los Angeles Center
07:35PM 36.6733 -112.6078 70° East 493 567 31,000 300 Level Los Angeles Center
07:36PM 36.7194 -112.4442 71° East 501 577 31,700 900 Climbing Los Angeles Center
07:37PM 36.7644 -112.2825 71° East 498 573 32,900 600 Climbing Los Angeles Center
07:39PM 36.8106 -112.1228 70° East 495 570 33,000 60 Climbing Los Angeles Center
07:39PM 36.8283 -112.0589 71° East 496 571 33,000  Level Denver Center
07:40PM 36.8717 -111.8992 71° East 491 565 33,000  Level Denver Center
07:41PM 36.9275 -111.7053 70° East 495 570 33,000  Level Denver Center
07:42PM 36.9733 -111.5414 71° East 499 574 33,000  Level Denver Center
07:43PM 37.0178 -111.3800 71° East 496 571 33,000  Level Denver Center
07:44PM 37.0583 -111.2197 72° East 491 565 33,000  Level Denver Center
07:45PM 37.1033 -111.0553 71° East 500 575 33,000  Level Denver Center
07:46PM 37.1431 -110.8892 73° East 501 577 33,000  Level Denver Center
07:47PM 37.1856 -110.6867 75° East 501 577 33,000  Level Denver Center
07:48PM 37.2203 -110.5181 75° East 502 578 33,000  Level Denver Center
07:49PM 37.2550 -110.3472 76° East 507 583 33,000  Level Denver Center
07:50PM 37.2889 -110.1786 76° East 511 588 33,000  Level Denver Center
07:51PM 37.3281 -109.9844 76° East 512 589 33,000  Level Denver Center
07:52PM 37.3617 -109.8175 76° East 514 592 33,000  Level Denver Center
07:53PM 37.4000 -109.6233 76° East 512 589 33,000  Level Denver Center
07:54PM 37.4319 -109.4556 76° East 513 590 33,000  Level Denver Center
07:55PM 37.4703 -109.2600 76° East 514 592 33,000  Level Denver Center
07:56PM 37.5025 -109.0917 76° East 517 595 33,000  Level Denver Center
07:58PM 37.5400 -108.8975 76° East 510 587 33,000  Level Denver Center
07:59PM 37.5714 -108.7264 77° East 519 597 33,000  Level Denver Center
08:00PM 37.6039 -108.5589 76° East 516 594 33,000  Level Denver Center
08:01PM 37.6397 -108.3611 77° East 516 594 33,000  Level Denver Center
08:02PM 37.6714 -108.1925 77° East 515 593 33,000  Level Denver Center
08:03PM 37.7075 -107.9953 77° East 515 593 33,000  Level Denver Center
08:04PM 37.7328 -107.8542 77° East 516 594 33,000  Level Denver Center
08:05PM 37.7733 -107.6286 77° East 515 593 33,000  Level Denver Center
08:06PM 37.8036 -107.4572 77° East 520 598 33,000  Level Denver Center
08:07PM 37.8383 -107.2600 77° East 516 594 33,000  Level Denver Center
08:08PM 37.8697 -107.0764 78° East 522 601 33,000  Level Denver Center
08:09PM 37.8992 -106.9072 78° East 518 596 33,000  Level Denver Center
08:10PM 37.9278 -106.7356 78° East 521 600 33,000  Level Denver Center
08:11PM 37.9617 -106.5356 78° East 522 601 33,000  Level Denver Center
08:12PM 37.9917 -106.3547 78° East 520 598 33,000 60 Level Denver Center
08:13PM 38.0250 -106.1544 78° East 520 598 33,200 720 Climbing Denver Center
08:14PM 38.0519 -105.9833 79° East 519 597 34,500 900 Climbing Denver Center
08:15PM 38.0811 -105.8100 78° East 523 602 35,100 1,200 Climbing Denver Center
08:16PM 38.1139 -105.6125 78° East 513 590 37,000 900 Climbing Denver Center
08:17PM 38.1383 -105.4472 79° East 500 575 37,000  Level Denver Center
08:18PM 38.1703 -105.2478 78° East 511 588 37,000  Level Denver Center
08:19PM 38.1967 -105.0792 79° East 509 586 37,000  Level Denver Center
08:20PM 38.2267 -104.8864 79° East 501 577 37,000  Level Denver Center
08:21PM 38.2567 -104.6922 79° East 498 573 37,000 -60 Level Denver Center
08:22PM 38.2861 -104.4897 79° East 515 593 36,900 -60 Descending Denver Center
08:24PM 38.3514 -104.3428 60° Northeast 519 597 36,900  Level Denver Center
08:25PM 38.4575 -104.1786 50° Northeast 512 589 36,900  Level Denver Center
08:26PM 38.5425 -104.0497 50° Northeast 508 585 36,900  Level Denver Center
08:27PM 38.6431 -103.8936 50° Northeast 508 585 36,900  Level Denver Center
08:28PM 38.7297 -103.7611 50° Northeast 505 581 36,900  Level Denver Center
08:29PM 38.8103 -103.6208 54° Northeast 509 586 36,900  Level Denver Center
08:30PM 38.8467 -103.4267 76° East 535 616 36,900  Level Denver Center
08:31PM 38.8683 -103.2725 80° East 529 609 36,900  Level Denver Center
08:32PM 38.9042 -103.0206 80° East 533 613 36,900  Level Denver Center
08:33PM 38.9314 -102.8297 80° East 539 620 36,900  Level Denver Center
08:34PM 38.9525 -102.6772 80° East 535 616 36,900  Level Denver Center
08:35PM 38.9844 -102.4364 80° East 535 616 36,900  Level Denver Center
08:36PM 39.0083 -102.2575 80° East 531 611 36,900  Level Denver Center
08:37PM 39.0311 -102.0822 80° East 522 601 36,900  Level Denver Center
08:38PM 39.0583 -101.8786 80° East 518 596 36,900  Level Denver Center
08:39PM 39.0806 -101.7039 81° East 524 603 36,900  Level Denver Center
08:40PM 39.1078 -101.4975 80° East 525 604 36,900  Level Denver Center
08:41PM 39.1292 -101.3178 81° East 529 609 36,900  Level Denver Center
08:42PM 39.1553 -101.1075 81° East 534 615 36,900  Level Denver Center
08:43PM 39.1772 -100.9281 81° East 533 613 36,900  Level Denver Center
08:44PM 39.2028 -100.7186 81° East 531 611 36,900  Level Denver Center
08:45PM 39.2233 -100.5403 81° East 528 608 36,900  Level Denver Center
08:46PM 39.2475 -100.3339 81° East 525 604 36,900  Level Denver Center
08:47PM 39.2767 -100.1578 78° East 526 605 36,900  Level Denver Center
08:48PM 39.3269 -99.9633 71° East 517 595 36,900  Level Denver Center
08:49PM 39.3692 -99.7939 72° East 517 595 36,900  Level Denver Center
08:50PM 39.4178 -99.5975 72° East 515 593 36,900  Level Denver Center
08:51PM 39.4603 -99.4283 72° East 517 595 36,900  Level Denver Center
08:52PM 39.5067 -99.2367 73° East 514 592 36,900  Level Denver Center
08:53PM 39.5494 -99.0628 72° East 509 586 36,900  Level Denver Center
08:55PM 39.5914 -98.8894 73° East 506 582 36,900  Level Denver Center
08:56PM 39.6333 -98.7153 73° East 508 585 36,900  Level Denver Center
08:57PM 39.6744 -98.5447 73° East 504 580 36,900  Level Minneapolis Center
08:58PM 39.7308 -98.3014 73° East 503 579 36,900  Level Minneapolis Center
08:59PM 39.7714 -98.1303 73° East 499 574 36,900  Level Minneapolis Center
09:00PM 39.8122 -97.9567 73° East 501 577 36,900  Level Minneapolis Center
09:01PM 39.8514 -97.7822 74° East 504 580 36,900  Level Minneapolis Center
09:02PM 39.8914 -97.6092 73° East 503 579 36,900  Level Minneapolis Center
09:03PM 39.9308 -97.4342 74° East 503 579 36,900  Level Minneapolis Center
09:04PM 39.9703 -97.2561 74° East 503 579 36,900  Level Minneapolis Center
09:05PM 40.0094 -97.0814 74° East 504 580 36,900  Level Minneapolis Center
09:06PM 40.0569 -96.8742 73° East 500 575 36,900  Level Minneapolis Center
09:07PM 40.0939 -96.7000 74° East 500 575 36,900  Level Minneapolis Center
09:08PM 40.1322 -96.5264 74° East 498 573 36,900  Level Minneapolis Center
09:09PM 40.1697 -96.3528 74° East 499 574 36,900  Level Minneapolis Center
09:10PM 40.2061 -96.1806 74° East 496 571 36,900  Level Minneapolis Center
09:11PM 40.2386 -96.0069 76° East 494 568 36,900  Level Minneapolis Center
09:12PM 40.2706 -95.8289 77° East 499 574 36,900  Level Minneapolis Center
09:13PM 40.3094 -95.6203 76° East 496 571 36,900  Level Minneapolis Center
09:14PM 40.3414 -95.4450 76° East 497 572 36,900  Level Minneapolis Center
09:15PM 40.3742 -95.2686 76° East 499 574 36,900  Level Minneapolis Center
09:16PM 40.4050 -95.0925 77° East 499 574 36,900  Level Minneapolis Center
09:17PM 40.4369 -94.9158 77° East 499 574 36,900  Level Minneapolis Center
09:18PM 40.4675 -94.7392 77° East 499 574 36,900  Level Minneapolis Center
09:19PM 40.5014 -94.5356 78° East 502 578 36,900  Level Minneapolis Center
09:20PM 40.5319 -94.3569 77° East 504 580 36,900  Level Minneapolis Center
09:21PM 40.5619 -94.1792 77° East 504 580 36,900  Level Minneapolis Center
09:22PM 40.5931 -94.0003 77° East 504 580 36,900  Level Minneapolis Center
09:23PM 40.6194 -93.8231 79° East 500 575 36,900  Level Minneapolis Center
09:25PM 40.6464 -93.6450 79° East 498 573 36,900  Level Minneapolis Center
09:26PM 40.6775 -93.4342 79° East 495 570 36,900  Level Minneapolis Center
09:27PM 40.7008 -93.2583 80° East 491 565 36,900  Level Minneapolis Center
09:28PM 40.7258 -93.0814 79° East 492 566 36,900  Level Minneapolis Center
09:29PM 40.7506 -92.9056 79° East 491 565 36,900  Level Minneapolis Center
09:30PM 40.7744 -92.7297 80° East 488 562 36,900  Level Minneapolis Center
09:31PM 40.7989 -92.5522 80° East 490 564 36,900  Level Minneapolis Center
09:32PM 40.8231 -92.3742 80° East 492 566 36,900  Level Minneapolis Center
09:33PM 40.8464 -92.1969 80° East 493 567 36,900  Level Minneapolis Center
09:34PM 40.8692 -92.0186 80° East 494 568 36,900  Level Minneapolis Center
09:35PM 40.8969 -91.8103 80° East 487 560 36,900  Level Minneapolis Center
09:36PM 40.9186 -91.6378 81° East 481 554 36,900  Level Chicago Center
09:37PM 40.9403 -91.4639 81° East 480 552 36,900  Level Chicago Center
09:38PM 40.9656 -91.2747 80° East 477 549 36,900  Level Chicago Center
09:39PM 40.9858 -91.1003 81° East 478 550 36,900  Level Chicago Center
09:40PM 41.0078 -90.9250 81° East 482 555 36,900  Level Chicago Center
09:41PM 41.0283 -90.7497 81° East 481 554 36,900  Level Chicago Center
09:42PM 41.0494 -90.5739 81° East 481 554 36,900 -60 Level Chicago Center
09:43PM 41.0750 -90.3614 81° East 483 556 36,800 -540 Descending Chicago Center
09:44PM 41.0947 -90.1856 81° East 483 556 35,800 -900 Descending Chicago Center
09:45PM 41.1139 -90.0125 82° East 476 548 35,000 -420 Descending Chicago Center
09:46PM 41.1331 -89.8403 82° East 472 543 35,000  Level Chicago Center
09:47PM 41.1522 -89.6714 81° East 462 532 35,000  Level Chicago Center
09:48PM 41.1875 -89.5039 74° East 467 537 35,000  Level Chicago Center
09:49PM 41.2372 -89.3436 68° East 467 537 35,000  Level Chicago Center
09:50PM 41.2836 -89.1908 68° East 468 539 35,000  Level Chicago Center
09:51PM 41.3408 -89.0003 68° East 464 534 35,000  Level Chicago Center
09:52PM 41.3906 -88.8411 67° East 465 535 35,000  Level Chicago Center
09:53PM 41.4378 -88.6817 68° East 464 534 35,000  Level Chicago Center
09:54PM 41.4850 -88.5217 68° East 463 533 35,000  Level Chicago Center
09:55PM 41.5331 -88.3614 68° East 463 533 35,000  Level Chicago Center
09:56PM 41.5614 -88.1933 77° East 464 534 35,000  Level Chicago Center
09:57PM 41.5822 -88.0192 81° East 465 535 35,000 -360 Level Chicago Center
09:58PM 41.6022 -87.8461 81° East 466 536 34,300 -840 Descending Chicago Center
09:59PM 41.6219 -87.6717 81° East 472 543 33,400 -660 Descending Chicago Center
10:01PM 41.6414 -87.4967 81° East 475 547 33,000 -240 Descending Chicago Center
10:02PM 41.6644 -87.2889 81° East 472 543 33,000  Level Chicago Center
10:03PM 41.6833 -87.1150 82° East 473 544 33,000  Level Chicago Center
10:04PM 41.7017 -86.9419 82° East 472 543 33,000  Level Chicago Center
10:05PM 41.7200 -86.7683 82° East 473 544 33,000  Level Chicago Center
10:06PM 41.7431 -86.5894 80° East 470 541 33,000  Level Chicago Center
10:07PM 41.7758 -86.4183 76° East 472 543 33,000 -300 Level Chicago Center
10:08PM 41.8078 -86.2486 76° East 471 542 32,500 -1,800 Descending Chicago Center
10:09PM 41.8375 -86.0786 77° East 469 540 29,400 -3,000 Descending Chicago Center
10:10PM 41.8678 -85.9083 77° East 468 539 26,400 -2,640 Descending Chicago Center
10:11PM 41.8967 -85.7422 77° East 458 527 24,000 -1,500 Descending Chicago Center
10:12PM 41.9258 -85.5792 76° East 449 517 23,400 -840 Descending Chicago Center
10:13PM 41.9542 -85.4169 77° East 443 510 22,400 -1,020 Descending Chicago Center
10:13PM 41.9731 -85.3122 76° East 451 519 21,800 -1,500 Descending Cleveland Center
10:14PM 41.9978 -85.1606 78° East 434 499 20,000 -1,440 Descending Cleveland Center
10:15PM 42.0225 -85.0083 78° East 425 489 19,000 -540 Descending Cleveland Center
10:16PM 42.0364 -84.8611 83° East 408 470 19,000  Level Cleveland Center
10:17PM 41.9981 -84.7133 109° East 396 456 19,000  Level Cleveland Center
10:18PM 41.9617 -84.5656 108° East 401 461 19,000 -300 Level Cleveland Center
10:19PM 41.9228 -84.4208 110° East 406 467 18,500 -900 Descending Cleveland Center
10:20PM 41.9061 -84.3556 109° East 408 470 17,800 -2,220 Descending Cleveland Center
10:20PM 41.8819 -84.2678 110° East 406 467 16,300 -2,640 Descending Cleveland Center
10:21PM 41.8692 -84.2083 106° East 395 455 14,900 -2,820 Descending Cleveland Center
10:21PM 41.8486 -84.1347 111° Southeast 394 453 13,500 -2,580 Descending Cleveland Center
10:22PM 41.8344 -84.0558 104° East 364 419 12,100 -1,440 Descending Cleveland Center
10:22PM 41.8442 -84.0033 76° East 355 409 12,100 -240 Level Cleveland Center
10:23PM 41.8772 -83.9522 49° Northeast 359 413 11,900  Descending Cleveland Center
10:23PM 41.9058 -83.8978 55° Northeast 327 376 12,100 -120 Climbing Cleveland Center
10:24PM 41.9447 -83.8525 41° Northeast 358 412 11,800 -420 Descending Cleveland Center
10:24PM 41.9769 -83.8150 41° Northeast 327 376 11,700 -480 Descending Cleveland Center
10:25PM 42.0092 -83.7858 34° Northeast 307 353 11,400 -840 Descending Cleveland Center
10:25PM 42.0414 -83.7456 43° Northeast 309 356 10,900 -1,320 Descending Cleveland Center
10:26PM 42.0714 -83.7189 33° Northeast 277 319 10,100 -1,500 Descending Cleveland Center
10:26PM 42.1036 -83.6786 43° Northeast 294 338 9,400 -1,380 Descending Cleveland Center
10:27PM 42.1358 -83.6467 36° Northeast 276 318 8,600 -1,440 Descending Cleveland Center
10:27PM 42.1617 -83.6169 40° Northeast 283 326 8,000 -1,740 Descending Cleveland Center
10:28PM 42.2003 -83.5797 36° Northeast 273 314 6,900 -1,500 Descending Cleveland Center
10:28PM 42.2153 -83.5578 47° Northeast 277 319 6,500 -1,020 Descending Cleveland Center
10:29PM 42.2600 -83.5178 33° Northeast 268 308 5,900 -540 Descending Cleveland Center
10:29PM 42.2750 -83.5017 38° Northeast 271 312 6,000  Climbing Cleveland Center
10:30PM 42.3114 -83.4697 33° Northeast 230 265 5,900 -240 Descending Cleveland Center
10:31PM 42.3606 -83.4214 36° Northeast 230 265 5,700 -600 Descending Cleveland Center
10:32PM 42.3789 -83.3492 71° East 187 215 4,700 -900 Descending Cleveland Center